createdAt,value
2023-05-08T00:02:15.461Z,5.78
2023-05-08T00:04:43.376Z,5.22
2023-05-08T00:07:11.229Z,7.03
2023-05-08T00:09:40.653Z,7.50
2023-05-08T00:12:08.876Z,7.45
2023-05-08T00:14:36.765Z,8.15
2023-05-08T00:17:04.669Z,8.43
2023-05-08T00:19:32.728Z,7.80
2023-05-08T00:22:00.452Z,9.80
2023-05-08T00:24:28.208Z,9.93
2023-05-08T00:26:57.368Z,10.88
2023-05-08T00:29:25.213Z,10.18
2023-05-08T00:31:53.097Z,10.95
2023-05-08T00:34:20.874Z,10.30
2023-05-08T00:36:48.823Z,9.52
2023-05-08T00:39:16.677Z,9.82
2023-05-08T00:41:44.451Z,9.10
2023-05-08T00:44:13.588Z,9.75
2023-05-08T00:46:45.733Z,10.18
2023-05-08T00:49:14.625Z,10.45
2023-05-08T00:51:43.620Z,11.00
2023-05-08T00:54:12.168Z,11.73
2023-05-08T00:56:40.486Z,10.25
2023-05-08T00:59:12.730Z,15.88
2023-05-08T01:01:45.289Z,12.45
2023-05-08T01:04:13.320Z,12.32
2023-05-08T01:06:43.991Z,11.52
2023-05-08T01:09:12.252Z,10.15
2023-05-08T01:11:48.287Z,9.63
2023-05-08T01:14:21.310Z,9.20
2023-05-08T01:16:59.605Z,11.75
2023-05-08T01:19:55.991Z,9.07
2023-05-08T01:22:45.133Z,9.57
2023-05-08T01:25:36.158Z,9.65
2023-05-08T01:28:22.975Z,12.00
2023-05-08T01:31:18.543Z,46.63
2023-05-08T01:33:55.919Z,25.45
2023-05-08T01:36:30.266Z,122.05
2023-05-08T01:39:18.365Z,97.13
2023-05-08T01:41:55.218Z,98.57
2023-05-08T01:44:30.075Z,75.93
2023-05-08T01:46:59.559Z,84.90
2023-05-08T01:49:35.386Z,132.60
2023-05-08T01:52:08.623Z,56.75
2023-05-08T01:54:44.053Z,41.20
2023-05-08T01:57:13.496Z,42.25
2023-05-08T01:59:44.034Z,42.00
2023-05-08T02:02:13.236Z,45.20
2023-05-08T02:04:44.588Z,57.40
2023-05-08T02:07:12.830Z,47.20
2023-05-08T02:09:45.883Z,55.40
2023-05-08T02:12:15.434Z,58.50
2023-05-08T02:14:44.805Z,64.35
2023-05-08T02:17:15.483Z,54.95
2023-05-08T02:19:45.840Z,61.45
2023-05-08T02:22:16.417Z,44.75
2023-05-08T02:24:46.316Z,35.65
2023-05-08T02:27:16.957Z,33.35
2023-05-08T02:29:44.758Z,36.47
2023-05-08T02:32:13.209Z,42.65
2023-05-08T02:34:51.118Z,33.15
2023-05-08T02:37:29.866Z,37.55
2023-05-08T02:39:59.650Z,38.92
2023-05-08T02:42:27.745Z,37.33
2023-05-08T02:44:55.586Z,35.25
2023-05-08T02:47:27.031Z,54.80
2023-05-08T02:50:01.328Z,48.45
2023-05-08T02:52:33.650Z,58.13
2023-05-08T02:55:06.213Z,72.22
2023-05-08T02:57:42.954Z,73.80
2023-05-08T03:00:18.421Z,67.60
2023-05-08T03:02:57.100Z,75.93
2023-05-08T03:05:30.602Z,87.45
2023-05-08T03:08:06.070Z,84.85
2023-05-08T03:10:37.712Z,78.45
2023-05-08T03:13:09.202Z,84.90
2023-05-08T03:15:43.022Z,80.45
2023-05-08T03:20:44.705Z,90.18
2023-05-08T03:23:16.486Z,77.05
2023-05-08T03:25:44.887Z,105.00
2023-05-08T03:28:14.271Z,79.75
2023-05-08T03:30:43.330Z,86.38
2023-05-08T03:33:13.610Z,102.45
2023-05-08T03:35:41.777Z,123.35
2023-05-08T03:38:09.703Z,111.80
2023-05-08T03:40:39.947Z,109.30
2023-05-08T03:43:08.806Z,178.75
2023-05-08T03:45:37.832Z,137.57
2023-05-08T03:48:06.419Z,168.65
2023-05-08T03:50:36.948Z,171.55
2023-05-08T03:53:05.172Z,168.90
2023-05-08T03:55:33.759Z,144.88
2023-05-08T03:58:08.161Z,137.80
2023-05-08T04:00:47.916Z,246.27
2023-05-08T04:03:23.953Z,179.23
2023-05-08T04:06:00.855Z,127.93
2023-05-08T04:08:30.880Z,252.90
2023-05-08T04:11:07.581Z,405.77
2023-05-08T04:13:44.309Z,314.10
2023-05-08T04:16:18.660Z,352.80
2023-05-08T04:18:49.023Z,213.35
2023-05-08T04:21:21.414Z,152.35
2023-05-08T04:23:51.911Z,178.82
2023-05-08T04:26:20.693Z,248.30
2023-05-08T04:28:50.491Z,140.75
2023-05-08T04:31:19.088Z,132.38
2023-05-08T04:33:47.433Z,188.00
2023-05-08T04:36:15.649Z,160.85
2023-05-08T04:38:43.656Z,250.55
2023-05-08T04:41:11.504Z,229.07
2023-05-08T04:43:39.757Z,280.58
2023-05-08T04:46:09.614Z,158.77
2023-05-08T04:48:37.591Z,166.80
2023-05-08T04:51:05.884Z,189.77
2023-05-08T04:53:33.841Z,148.55
2023-05-08T04:56:01.743Z,133.48
2023-05-08T04:58:29.722Z,121.43
2023-05-08T05:00:57.504Z,204.63
2023-05-08T05:03:26.668Z,164.00
2023-05-08T05:05:59.750Z,135.82
2023-05-08T05:08:27.651Z,128.18
2023-05-08T05:10:55.598Z,198.18
2023-05-08T05:13:23.456Z,146.40
2023-05-08T05:15:54.388Z,195.73
2023-05-08T05:18:22.466Z,183.05
2023-05-08T05:20:51.653Z,148.30
2023-05-08T05:23:19.431Z,102.75
2023-05-08T05:25:47.271Z,181.27
2023-05-08T05:28:15.110Z,128.43
2023-05-08T05:30:43.207Z,137.00
2023-05-08T05:33:11.003Z,146.35
2023-05-08T05:35:38.897Z,119.93
2023-05-08T05:38:08.051Z,198.85
2023-05-08T05:40:35.788Z,149.98
2023-05-08T05:43:03.927Z,115.88
2023-05-08T05:45:33.598Z,149.18
2023-05-08T05:48:01.677Z,138.70
2023-05-08T05:50:29.507Z,381.35
2023-05-08T05:52:57.218Z,465.00
2023-05-08T05:55:26.729Z,223.57
2023-05-08T05:57:57.509Z,276.52
2023-05-08T06:00:25.327Z,157.52
2023-05-08T06:02:53.415Z,284.13
2023-05-08T06:05:21.376Z,183.95
2023-05-08T06:07:49.130Z,176.05
2023-05-08T06:10:16.915Z,137.60
2023-05-08T06:12:46.046Z,152.13
2023-05-08T06:15:15.045Z,178.98
2023-05-08T06:17:43.106Z,96.25
2023-05-08T06:20:11.115Z,126.28
2023-05-08T06:22:40.091Z,187.32
2023-05-08T06:25:09.682Z,174.88
2023-05-08T06:27:37.589Z,184.13
2023-05-08T06:30:10.699Z,146.25
2023-05-08T06:32:41.632Z,126.47
2023-05-08T06:35:10.626Z,132.55
2023-05-08T06:37:38.669Z,134.30
2023-05-08T06:40:12.183Z,103.55
2023-05-08T06:42:41.080Z,107.28
2023-05-08T06:45:11.469Z,103.95
2023-05-08T06:47:39.468Z,121.10
2023-05-08T06:50:08.381Z,118.32
2023-05-08T06:52:36.103Z,106.28
2023-05-08T06:55:03.944Z,105.32
2023-05-08T06:57:31.699Z,94.75
2023-05-08T06:59:59.415Z,94.13
2023-05-08T07:02:28.681Z,95.65
2023-05-08T07:04:56.474Z,98.65
2023-05-08T07:07:24.404Z,100.30
2023-05-08T07:09:52.164Z,105.50
2023-05-08T07:12:20.000Z,112.97
2023-05-08T07:14:47.763Z,109.18
2023-05-08T07:17:15.704Z,100.50
2023-05-08T07:19:44.882Z,105.28
2023-05-08T07:22:12.781Z,101.82
2023-05-08T07:24:40.711Z,107.35
2023-05-08T07:27:08.559Z,100.50
2023-05-08T07:29:36.965Z,105.05
2023-05-08T07:32:08.487Z,99.47
2023-05-08T07:34:36.542Z,94.15
2023-05-08T07:37:05.902Z,93.32
2023-05-08T07:39:33.790Z,93.95
2023-05-08T07:42:01.613Z,79.22
2023-05-08T07:44:31.673Z,88.85
2023-05-08T07:47:03.755Z,86.60
2023-05-08T07:49:31.642Z,94.85
2023-05-08T07:51:59.423Z,93.38
2023-05-08T07:54:28.660Z,91.93
2023-05-08T07:56:56.470Z,85.75
2023-05-08T07:59:24.359Z,82.05
2023-05-08T08:01:52.517Z,92.75
2023-05-08T08:04:20.426Z,73.03
2023-05-08T08:06:48.283Z,69.75
2023-05-08T08:09:16.185Z,65.75
2023-05-08T08:11:45.396Z,65.75
2023-05-08T08:14:13.188Z,61.90
2023-05-08T08:16:40.939Z,73.47
2023-05-08T08:19:08.765Z,66.32
2023-05-08T08:21:36.782Z,69.38
2023-05-08T08:24:04.926Z,75.95
2023-05-08T08:26:32.731Z,78.65
2023-05-08T08:29:02.151Z,78.35
2023-05-08T08:31:29.990Z,83.45
2023-05-08T08:33:57.866Z,82.55
2023-05-08T08:36:27.963Z,90.70
2023-05-08T08:38:55.728Z,81.18
2023-05-08T08:41:23.669Z,80.88
2023-05-08T08:43:51.574Z,85.30
2023-05-08T08:46:24.956Z,88.00
2023-05-08T08:48:55.296Z,89.00
2023-05-08T08:51:28.457Z,90.25
2023-05-08T08:54:04.393Z,91.90
2023-05-08T08:56:33.784Z,83.70
2023-05-08T08:59:02.875Z,77.82
2023-05-08T09:01:36.144Z,82.88
2023-05-08T09:04:04.125Z,79.50
2023-05-08T09:06:35.770Z,71.63
2023-05-08T09:09:04.161Z,79.53
2023-05-08T09:11:32.023Z,81.47
2023-05-08T09:14:00.350Z,78.05
2023-05-08T09:16:29.301Z,70.78
2023-05-08T09:18:58.486Z,71.63
2023-05-08T09:21:26.909Z,72.72
2023-05-08T09:23:58.708Z,77.30
2023-05-08T09:26:32.463Z,71.82
2023-05-08T09:29:18.899Z,68.78
2023-05-08T09:31:49.007Z,67.50
2023-05-08T09:34:27.991Z,68.18
2023-05-08T09:36:56.275Z,72.88
2023-05-08T09:39:25.705Z,65.38
2023-05-08T09:42:00.212Z,64.50
2023-05-08T09:44:28.407Z,61.53
2023-05-08T09:47:12.012Z,64.00
2023-05-08T09:49:41.386Z,58.25
2023-05-08T09:52:09.549Z,57.50
2023-05-08T09:54:37.424Z,59.53
2023-05-08T09:57:13.480Z,57.65
2023-05-08T09:59:41.369Z,61.75
2023-05-08T10:02:16.071Z,53.63
2023-05-08T10:04:45.916Z,58.25
2023-05-08T10:07:13.731Z,59.38
2023-05-08T10:09:50.397Z,63.50
2023-05-08T10:12:19.344Z,55.47
2023-05-08T10:14:47.324Z,51.20
2023-05-08T10:17:20.466Z,54.38
2023-05-08T10:19:51.831Z,54.53
2023-05-08T10:22:21.603Z,55.50
2023-05-08T10:24:54.656Z,51.55
2023-05-08T10:27:31.951Z,56.97
2023-05-08T10:30:04.111Z,49.15
2023-05-08T10:32:40.675Z,50.28
2023-05-08T10:35:13.105Z,53.28
2023-05-08T10:37:42.894Z,56.15
2023-05-08T10:40:12.220Z,52.15
2023-05-08T10:42:41.051Z,54.08
2023-05-08T10:45:10.291Z,54.53
2023-05-08T10:47:49.682Z,56.35
2023-05-08T10:50:38.331Z,53.10
2023-05-08T10:53:09.154Z,56.55
2023-05-08T10:55:38.564Z,51.10
2023-05-08T10:58:10.705Z,50.75
2023-05-08T11:01:12.424Z,48.00
2023-05-08T11:03:42.559Z,48.63
2023-05-08T11:06:12.395Z,42.17
2023-05-08T11:08:51.740Z,48.72
2023-05-08T11:11:27.152Z,41.40
2023-05-08T11:14:00.460Z,40.20
2023-05-08T11:17:05.187Z,35.72
2023-05-08T11:19:33.008Z,36.13
2023-05-08T11:22:16.279Z,37.08
2023-05-08T11:24:50.328Z,36.47
2023-05-08T11:27:18.444Z,33.67
2023-05-08T11:29:46.262Z,32.70
2023-05-08T11:32:14.296Z,34.75
2023-05-08T11:34:49.595Z,40.05
2023-05-08T11:37:24.019Z,33.30
2023-05-08T11:39:52.118Z,31.95
2023-05-08T11:42:36.100Z,31.92
2023-05-08T11:45:06.594Z,31.88
2023-05-08T11:47:39.250Z,29.90
2023-05-08T11:50:09.088Z,30.00
2023-05-08T11:52:39.617Z,28.83
2023-05-08T11:55:09.693Z,28.98
2023-05-08T11:57:37.845Z,30.95
2023-05-08T12:00:06.881Z,32.75
2023-05-08T12:02:39.112Z,28.52
2023-05-08T12:05:08.298Z,32.88
2023-05-08T12:07:46.364Z,29.02
2023-05-08T12:10:15.320Z,30.40
2023-05-08T12:12:45.274Z,31.45
2023-05-08T12:15:15.294Z,29.85
2023-05-08T12:17:43.698Z,28.17
2023-05-08T12:20:14.263Z,32.97
2023-05-08T12:22:44.373Z,27.50
2023-05-08T12:25:13.096Z,30.05
2023-05-08T12:27:43.799Z,32.00
2023-05-08T12:30:14.071Z,30.73
2023-05-08T12:32:43.697Z,35.85
2023-05-08T12:35:12.813Z,31.73
2023-05-08T12:37:41.597Z,32.15
2023-05-08T12:40:26.849Z,32.30
2023-05-08T12:42:54.919Z,32.97
2023-05-08T12:45:24.203Z,30.55
2023-05-08T12:47:53.696Z,30.20
2023-05-08T12:50:22.824Z,27.05
2023-05-08T12:52:51.771Z,31.27
2023-05-08T12:55:29.130Z,28.73
2023-05-08T12:58:05.503Z,27.90
2023-05-08T13:00:38.253Z,27.55
2023-05-08T13:03:07.604Z,27.67
2023-05-08T13:05:36.994Z,29.08
2023-05-08T13:08:06.701Z,28.77
2023-05-08T13:10:49.960Z,27.20
2023-05-08T13:13:22.177Z,29.77
2023-05-08T13:15:51.661Z,30.48
2023-05-08T13:18:21.172Z,28.95
2023-05-08T13:20:49.173Z,30.65
2023-05-08T13:23:16.987Z,31.88
2023-05-08T13:25:44.868Z,33.22
2023-05-08T13:28:13.992Z,40.55
2023-05-08T13:30:41.767Z,37.30
2023-05-08T13:33:09.867Z,47.15
2023-05-08T13:35:37.815Z,49.22
2023-05-08T13:38:06.107Z,50.88
2023-05-08T13:40:34.120Z,49.80
2023-05-08T13:43:02.197Z,62.78
2023-05-08T13:45:32.883Z,64.10
2023-05-08T13:48:01.456Z,81.07
2023-05-08T13:50:29.416Z,88.65
2023-05-08T13:52:57.188Z,96.93
2023-05-08T13:55:25.069Z,96.18
2023-05-08T13:57:52.843Z,100.90
2023-05-08T14:00:21.217Z,99.65
2023-05-08T14:02:53.003Z,104.28
2023-05-08T14:05:21.332Z,97.60
2023-05-08T14:07:49.422Z,99.60
2023-05-08T14:10:18.058Z,91.30
2023-05-08T14:12:46.775Z,93.50
2023-05-08T14:15:14.966Z,92.97
2023-05-08T14:17:43.397Z,86.72
2023-05-08T14:20:13.525Z,78.50
2023-05-08T14:22:41.480Z,76.78
2023-05-08T14:25:10.536Z,70.47
2023-05-08T14:27:38.612Z,69.57
2023-05-08T14:30:08.279Z,73.50
2023-05-08T14:32:36.147Z,75.78
2023-05-08T14:35:03.979Z,69.40
2023-05-08T14:37:33.140Z,69.25
2023-05-08T14:40:00.959Z,64.65
2023-05-08T14:42:28.872Z,67.65
2023-05-08T14:44:57.026Z,51.83
2023-05-08T14:47:24.854Z,62.95
2023-05-08T14:49:53.717Z,61.42
2023-05-08T14:52:21.561Z,50.10
2023-05-08T14:54:53.418Z,49.13
2023-05-08T14:57:21.696Z,44.70
2023-05-08T14:59:55.100Z,45.38
2023-05-08T15:02:23.549Z,43.90
2023-05-08T15:04:51.414Z,37.90
2023-05-08T15:07:19.190Z,40.60
2023-05-08T15:09:47.939Z,37.90
2023-05-08T15:12:17.069Z,38.38
2023-05-08T15:14:44.878Z,39.72
2023-05-08T15:17:12.687Z,39.63
2023-05-08T15:19:40.495Z,37.33
2023-05-08T15:22:08.242Z,36.25
2023-05-08T15:24:36.122Z,39.20
2023-05-08T15:27:03.998Z,37.63
2023-05-08T15:29:33.166Z,35.88
2023-05-08T15:32:01.002Z,35.28
2023-05-08T15:34:32.695Z,37.08
2023-05-08T15:37:00.850Z,34.67
2023-05-08T15:39:28.625Z,29.58
2023-05-08T15:41:56.483Z,30.85
2023-05-08T15:44:26.534Z,27.35
2023-05-08T15:46:58.007Z,29.70
2023-05-08T15:49:27.089Z,30.30
2023-05-08T15:51:55.088Z,27.38
2023-05-08T15:54:22.842Z,25.02
2023-05-08T15:56:50.710Z,23.60
2023-05-08T15:59:18.564Z,23.63
2023-05-08T16:01:46.978Z,25.63
2023-05-08T16:04:16.182Z,25.73
2023-05-08T16:06:43.940Z,23.45
2023-05-08T16:09:11.705Z,24.60
2023-05-08T16:11:39.513Z,26.88
2023-05-08T16:14:07.324Z,26.10
2023-05-08T16:16:35.188Z,23.73
2023-05-08T16:19:03.158Z,22.00
2023-05-08T16:21:32.449Z,27.10
2023-05-08T16:24:00.556Z,28.10
2023-05-08T16:26:28.316Z,30.92
2023-05-08T16:28:56.238Z,27.10
2023-05-08T16:31:24.050Z,32.13
2023-05-08T16:33:51.780Z,32.08
2023-05-08T16:36:19.361Z,38.33
2023-05-08T16:38:48.624Z,38.83
2023-05-08T16:41:16.433Z,43.13
2023-05-08T16:43:44.239Z,38.45
2023-05-08T16:46:12.044Z,41.85
2023-05-08T16:48:39.840Z,43.38
2023-05-08T16:51:08.066Z,43.22
2023-05-08T16:53:35.997Z,41.95
2023-05-08T16:56:05.281Z,58.03
2023-05-08T16:58:33.242Z,44.25
2023-05-08T17:01:01.128Z,43.28
2023-05-08T17:03:29.048Z,43.88
2023-05-08T17:05:56.874Z,41.35
2023-05-08T17:08:24.630Z,41.45
2023-05-08T17:10:54.233Z,41.05
2023-05-08T17:13:23.416Z,37.83
2023-05-08T17:15:51.251Z,36.28
2023-05-08T17:18:19.018Z,39.80
2023-05-08T17:20:46.803Z,39.33
2023-05-08T17:23:14.663Z,36.60
2023-05-08T17:25:42.576Z,34.53
2023-05-08T17:28:10.419Z,38.00
2023-05-08T17:30:39.644Z,33.38
2023-05-08T17:33:07.476Z,39.33
2023-05-08T17:35:35.294Z,40.70
2023-05-08T17:38:03.136Z,36.45
2023-05-08T17:40:31.667Z,32.70
2023-05-08T17:43:00.284Z,33.03
2023-05-08T17:45:28.311Z,34.42
2023-05-08T17:47:57.573Z,33.55
2023-05-08T17:50:25.603Z,30.73
2023-05-08T17:52:53.385Z,27.58
2023-05-08T17:55:21.166Z,32.10
2023-05-08T17:57:52.580Z,32.85
2023-05-08T18:00:20.814Z,26.95
2023-05-08T18:02:48.707Z,28.58
2023-05-08T18:05:17.963Z,24.88
2023-05-08T18:07:45.764Z,23.95
2023-05-08T18:10:13.912Z,27.02
2023-05-08T18:12:41.893Z,28.63
2023-05-08T18:15:10.599Z,25.27
2023-05-08T18:17:38.387Z,25.88
2023-05-08T18:20:07.875Z,24.20
2023-05-08T18:22:37.201Z,27.75
2023-05-08T18:25:05.604Z,24.85
2023-05-08T18:27:36.031Z,22.38
2023-05-08T18:30:04.342Z,21.83
2023-05-08T18:32:32.156Z,23.17
2023-05-08T18:34:59.996Z,21.67
2023-05-08T18:37:28.317Z,21.70
2023-05-08T18:39:57.465Z,23.50
2023-05-08T18:42:25.439Z,23.55
2023-05-08T18:44:53.614Z,30.67
2023-05-08T18:47:21.465Z,40.28
2023-05-08T18:49:51.796Z,31.45
2023-05-08T18:52:19.623Z,27.80
2023-05-08T18:54:47.416Z,28.02
2023-05-08T18:57:16.644Z,27.75
2023-05-08T18:59:47.427Z,25.40
2023-05-08T19:02:15.243Z,31.00
2023-05-08T19:04:43.000Z,28.73
2023-05-08T19:07:10.773Z,32.03
2023-05-08T19:09:38.586Z,31.65
2023-05-08T19:12:06.436Z,30.33
2023-05-08T19:14:35.672Z,39.90
2023-05-08T19:17:03.487Z,37.22
2023-05-08T19:19:31.519Z,43.80
2023-05-08T19:21:59.296Z,33.92
2023-05-08T19:24:29.920Z,36.38
2023-05-08T19:26:58.423Z,36.45
2023-05-08T19:29:26.426Z,37.83
2023-05-08T19:31:56.458Z,37.28
2023-05-08T19:34:24.742Z,41.20
2023-05-08T19:36:52.518Z,40.97
2023-05-08T19:39:20.289Z,39.80
2023-05-08T19:41:48.081Z,39.40
2023-05-08T19:44:15.902Z,40.47
2023-05-08T19:46:43.761Z,44.60
2023-05-08T19:49:17.272Z,38.03
2023-05-08T19:51:45.148Z,38.25
2023-05-08T19:54:13.091Z,40.20
2023-05-08T19:56:40.815Z,40.60
2023-05-08T19:59:08.623Z,38.42
2023-05-08T20:01:36.644Z,37.70
2023-05-08T20:04:04.612Z,40.15
2023-05-08T20:06:33.933Z,40.28
2023-05-08T20:09:01.694Z,42.15
2023-05-08T20:11:29.477Z,35.28
2023-05-08T20:13:57.479Z,39.78
2023-05-08T20:16:26.557Z,39.17
2023-05-08T20:18:54.480Z,40.60
2023-05-08T20:21:22.435Z,37.33
2023-05-08T20:23:51.912Z,38.33
2023-05-08T20:26:19.621Z,39.45
2023-05-08T20:28:47.381Z,37.17
2023-05-08T20:31:15.255Z,39.42
2023-05-08T20:33:43.038Z,40.65
2023-05-08T20:36:10.864Z,39.08
2023-05-08T20:38:38.825Z,39.17
2023-05-08T20:41:08.011Z,41.38
2023-05-08T20:43:35.915Z,39.35
2023-05-08T20:46:05.036Z,37.38
2023-05-08T20:48:32.796Z,40.65
2023-05-08T20:51:00.603Z,40.95
2023-05-08T20:53:28.377Z,41.33
2023-05-08T20:56:01.679Z,39.45
2023-05-08T20:58:31.053Z,42.17
2023-05-08T21:00:59.000Z,41.67
2023-05-08T21:03:26.853Z,42.30
2023-05-08T21:05:55.750Z,38.60
2023-05-08T21:08:24.252Z,42.33
2023-05-08T21:10:52.785Z,41.67
2023-05-08T21:13:20.690Z,41.83
2023-05-08T21:15:51.291Z,39.38
2023-05-08T21:18:19.348Z,39.22
2023-05-08T21:20:50.217Z,47.45
2023-05-08T21:23:18.280Z,43.45
2023-05-08T21:25:47.018Z,42.22
2023-05-08T21:28:15.125Z,43.42
2023-05-08T21:30:42.976Z,42.30
2023-05-08T21:33:13.810Z,41.15
2023-05-08T21:35:42.124Z,39.55
2023-05-08T21:38:12.071Z,43.85
2023-05-08T21:40:39.914Z,39.95
2023-05-08T21:43:07.768Z,42.88
2023-05-08T21:45:35.625Z,44.15
2023-05-08T21:48:03.949Z,44.65
2023-05-08T21:50:33.149Z,39.20
2023-05-08T21:53:00.997Z,38.15
2023-05-08T21:55:30.885Z,40.85
2023-05-08T21:57:59.917Z,39.75
2023-05-08T22:00:27.676Z,42.65
2023-05-08T22:02:55.479Z,42.97
2023-05-08T22:05:24.451Z,41.30
2023-05-08T22:07:53.961Z,40.08
2023-05-08T22:10:22.436Z,43.90
2023-05-08T22:12:50.265Z,42.10
2023-05-08T22:15:29.528Z,45.40
2023-05-08T22:17:58.436Z,50.10
2023-05-08T22:20:26.589Z,46.22
2023-05-08T22:22:55.814Z,49.40
2023-05-08T22:25:25.202Z,44.88
2023-05-08T22:27:53.185Z,49.55
2023-05-08T22:30:21.185Z,48.88
2023-05-08T22:32:55.316Z,49.03
2023-05-08T22:35:24.828Z,44.30
2023-05-08T22:37:53.464Z,47.63
2023-05-08T22:40:23.263Z,46.63
2023-05-08T22:42:53.460Z,46.38
2023-05-08T22:45:21.585Z,47.85
2023-05-08T22:47:49.503Z,53.88
2023-05-08T22:50:17.510Z,53.25
2023-05-08T22:52:45.463Z,53.33
2023-05-08T22:55:15.509Z,50.30
2023-05-08T22:57:44.916Z,50.42
2023-05-08T23:00:16.204Z,58.20
2023-05-08T23:02:44.268Z,51.53
2023-05-08T23:05:12.180Z,53.45
2023-05-08T23:07:40.467Z,51.08
2023-05-08T23:10:09.040Z,56.53
2023-05-08T23:12:37.063Z,53.90
2023-05-08T23:15:07.047Z,52.20
2023-05-08T23:17:34.798Z,51.05
2023-05-08T23:20:02.835Z,55.40
2023-05-08T23:22:30.557Z,59.90
2023-05-08T23:24:58.418Z,55.50
2023-05-08T23:27:26.637Z,50.92
2023-05-08T23:29:54.361Z,51.95
2023-05-08T23:32:23.484Z,49.60
2023-05-08T23:34:51.209Z,52.13
2023-05-08T23:37:19.034Z,50.40
2023-05-08T23:39:46.738Z,48.20
2023-05-08T23:42:14.476Z,50.63
2023-05-08T23:44:42.224Z,45.55
2023-05-08T23:47:09.978Z,49.85
2023-05-08T23:49:39.126Z,44.38
2023-05-08T23:52:07.021Z,44.20
2023-05-08T23:54:34.815Z,41.67
2023-05-08T23:57:02.523Z,38.33
2023-05-08T23:59:30.430Z,38.25
